Widgeon — WDJ6594 — position and weather

sailwx.info

Track history (hours):
 
Tides and Currents Weather Stations Pressure Air Temp Water Temp Dewpoint Dewpoint Depression Visibility Wind Speed Wind Dir Waves Ship Positions

Widgeon

Owner: Kirby Inland Marine LP, Houston, TX. More information available from US FCC via Universal Licensing System and Coast Guard Vessel Documentation Center.

Last reported at 2018-Jan-20 18:53 UTC. Time now 2018-Jan-23 11:48 UTC.
Position N 29°33' W 090°27'.

Length 85 m; draft 2.1 m.

Type: . MMSI: 367799340.

Date/timePositionNaut miles runAvg speedWind from/ knotsBaromVisibWave heightAir tempDewpointWater temp
2018-Jan-20 18:53N 29°33' W 090°27'1 3.0
2018-Jan-20 18:30N 29°33' W 090°28'2 4.6
2018-Jan-20 18:00N 29°34' W 090°31'3 5.0
2018-Jan-20 17:30N 29°34' W 090°33'2 4.7
2018-Jan-20 17:00N 29°35' W 090°36'2 4.8
2018-Jan-20 16:29N 29°35' W 090°39'2 4.9
2018-Jan-20 16:00N 29°36' W 090°41'1 2.9
2018-Jan-20 15:30N 29°36' W 090°43'2 3.6
2018-Jan-20 15:00N 29°34' W 090°43'2 4.8
2018-Jan-20 14:30N 29°33' W 090°45'2 4.3
2018-Jan-20 13:59N 29°32' W 090°48'65 4.2
2018-Jan-19 22:24N 29°50' W 091°60'2 4.6
2018-Jan-19 22:00N 29°49' W 092°02'3 4.7
2018-Jan-19 21:28N 29°48' W 092°04'2 4.9
2018-Jan-19 21:00N 29°48' W 092°07'2 4.4
2018-Jan-19 20:30N 29°47' W 092°09'2 4.8
2018-Jan-19 20:00N 29°47' W 092°12'0 0.8
2018-Jan-19 19:30N 29°47' W 092°13'1 1.2
2018-Jan-19 19:00N 29°47' W 092°13'1 1.1
2018-Jan-19 18:30N 29°48' W 092°14'1 1.6
2018-Jan-19 18:00N 29°48' W 092°15'1 1.4
2018-Jan-19 17:30N 29°48' W 092°15'1 1.3
2018-Jan-19 17:00N 29°49' W 092°16'2 4.7
2018-Jan-19 16:29N 29°50' W 092°18'40 4.4
2018-Jan-19 07:15N 29°56' W 093°04'1 4.5
2018-Jan-19 06:58N 29°56' W 093°06'2 4.5
2018-Jan-19 06:30N 29°56' W 093°08'2 4.3
2018-Jan-19 06:00N 29°57' W 093°10'2 4.7
2018-Jan-19 05:30N 29°59' W 093°12'2 4.5
2018-Jan-19 05:00N 30°00' W 093°14'2 4.2
2018-Jan-19 04:30N 30°02' W 093°15'2 3.8
2018-Jan-19 04:00N 30°04' W 093°16'2 3.8
2018-Jan-19 03:30N 30°05' W 093°18'1 1.6
2018-Jan-19 03:00N 30°06' W 093°18'0 0.5
2018-Jan-19 02:30N 30°06' W 093°18'2 3.3
2018-Jan-19 02:00N 30°05' W 093°20'2 3.9
2018-Jan-19 01:30N 30°04' W 093°21'1 1.8
2018-Jan-19 01:00N 30°04' W 093°21'3 5.9
2018-Jan-19 00:30N 30°06' W 093°18'0 0.1
2018-Jan-19 00:00N 30°06' W 093°18'0 0.0
2018-Jan-18 23:30N 30°06' W 093°18'0 0.0
2018-Jan-18 23:00N 30°06' W 093°18'2 4.6
2018-Jan-18 22:30N 30°05' W 093°20'2 4.7
2018-Jan-18 22:00N 30°04' W 093°22'3 5.9
2018-Jan-18 21:30N 30°04' W 093°26'3 5.4
2018-Jan-18 21:00N 30°04' W 093°29'12 0.6
2018-Jan-18 02:40N 30°03' W 093°42'1 6.2
2018-Jan-18 02:30N 30°04' W 093°41'3 6.2
2018-Jan-18 02:00N 30°04' W 093°38'3 6.2
2018-Jan-18 01:30N 30°04' W 093°34'3 6.1
2018-Jan-18 01:00N 30°04' W 093°31'6 6.2
2018-Jan-18 00:00N 30°04' W 093°23'0 5.6
2018-Jan-17 23:57N 30°04' W 093°23'  
2018-Jan-12 09:49N 29°51' W 092°22'2 5.3
2018-Jan-12 09:30N 29°51' W 092°20'2 4.9
2018-Jan-12 09:00N 29°49' W 092°17'3 5.3
2018-Jan-12 08:30N 29°48' W 092°15'2 4.7
2018-Jan-12 08:00N 29°47' W 092°12'2 4.4
2018-Jan-12 07:30N 29°47' W 092°10'3 5.6
2018-Jan-12 07:00N 29°48' W 092°07'3 5.7
2018-Jan-12 06:28N 29°49' W 092°03'65 5.0
2018-Jan-11 17:38N 29°32' W 090°51'1 6.1
2018-Jan-11 17:30N 29°32' W 090°51'3 5.9
2018-Jan-11 17:00N 29°32' W 090°47'3 5.1
2018-Jan-11 16:30N 29°34' W 090°45'2 4.7
2018-Jan-11 16:00N 29°35' W 090°43'2 3.7
2018-Jan-11 15:30N 29°37' W 090°41'3 5.7
2018-Jan-11 15:00N 29°35' W 090°38'3 5.4
2018-Jan-11 14:30N 29°35' W 090°35'4 5.0
2018-Jan-11 13:47N 29°34' W 090°31'  
Track history (hours):
 
Tides and Currents Weather Stations Pressure Air Temp Water Temp Dewpoint Dewpoint Depression Visibility Wind Speed Wind Dir Waves Ship Positions

Widgeon

Owner: Kirby Inland Marine LP, Houston, TX. More information available from US FCC via Universal Licensing System and Coast Guard Vessel Documentation Center.

Last reported at 2018-Jan-20 18:53 UTC. Time now 2018-Jan-23 11:48 UTC.
Position N 29°33' W 090°27'.

Length 85 m; draft 2.1 m.

Type: . MMSI: 367799340.

Date/timePositionNaut miles runAvg speedWind from/ knotsBaromVisibWave heightAir tempDewpointWater temp
2018-Jan-20 18:53N 29°33' W 090°27'1 3.0
2018-Jan-20 18:30N 29°33' W 090°28'2 4.6
2018-Jan-20 18:00N 29°34' W 090°31'3 5.0
2018-Jan-20 17:30N 29°34' W 090°33'2 4.7
2018-Jan-20 17:00N 29°35' W 090°36'2 4.8
2018-Jan-20 16:29N 29°35' W 090°39'2 4.9
2018-Jan-20 16:00N 29°36' W 090°41'1 2.9
2018-Jan-20 15:30N 29°36' W 090°43'2 3.6
2018-Jan-20 15:00N 29°34' W 090°43'2 4.8
2018-Jan-20 14:30N 29°33' W 090°45'2 4.3
2018-Jan-20 13:59N 29°32' W 090°48'65 4.2
2018-Jan-19 22:24N 29°50' W 091°60'2 4.6
2018-Jan-19 22:00N 29°49' W 092°02'3 4.7
2018-Jan-19 21:28N 29°48' W 092°04'2 4.9
2018-Jan-19 21:00N 29°48' W 092°07'2 4.4
2018-Jan-19 20:30N 29°47' W 092°09'2 4.8
2018-Jan-19 20:00N 29°47' W 092°12'0 0.8
2018-Jan-19 19:30N 29°47' W 092°13'1 1.2
2018-Jan-19 19:00N 29°47' W 092°13'1 1.1
2018-Jan-19 18:30N 29°48' W 092°14'1 1.6
2018-Jan-19 18:00N 29°48' W 092°15'1 1.4
2018-Jan-19 17:30N 29°48' W 092°15'1 1.3
2018-Jan-19 17:00N 29°49' W 092°16'2 4.7
2018-Jan-19 16:29N 29°50' W 092°18'40 4.4
2018-Jan-19 07:15N 29°56' W 093°04'1 4.5
2018-Jan-19 06:58N 29°56' W 093°06'2 4.5
2018-Jan-19 06:30N 29°56' W 093°08'2 4.3
2018-Jan-19 06:00N 29°57' W 093°10'2 4.7
2018-Jan-19 05:30N 29°59' W 093°12'2 4.5
2018-Jan-19 05:00N 30°00' W 093°14'2 4.2
2018-Jan-19 04:30N 30°02' W 093°15'2 3.8
2018-Jan-19 04:00N 30°04' W 093°16'2 3.8
2018-Jan-19 03:30N 30°05' W 093°18'1 1.6
2018-Jan-19 03:00N 30°06' W 093°18'0 0.5
2018-Jan-19 02:30N 30°06' W 093°18'2 3.3
2018-Jan-19 02:00N 30°05' W 093°20'2 3.9
2018-Jan-19 01:30N 30°04' W 093°21'1 1.8
2018-Jan-19 01:00N 30°04' W 093°21'3 5.9
2018-Jan-19 00:30N 30°06' W 093°18'0 0.1
2018-Jan-19 00:00N 30°06' W 093°18'0 0.0
2018-Jan-18 23:30N 30°06' W 093°18'0 0.0
2018-Jan-18 23:00N 30°06' W 093°18'2 4.6
2018-Jan-18 22:30N 30°05' W 093°20'2 4.7
2018-Jan-18 22:00N 30°04' W 093°22'3 5.9
2018-Jan-18 21:30N 30°04' W 093°26'3 5.4
2018-Jan-18 21:00N 30°04' W 093°29'12 0.6
2018-Jan-18 02:40N 30°03' W 093°42'1 6.2
2018-Jan-18 02:30N 30°04' W 093°41'3 6.2
2018-Jan-18 02:00N 30°04' W 093°38'3 6.2
2018-Jan-18 01:30N 30°04' W 093°34'3 6.1
2018-Jan-18 01:00N 30°04' W 093°31'6 6.2
2018-Jan-18 00:00N 30°04' W 093°23'0 5.6
2018-Jan-17 23:57N 30°04' W 093°23'  
2018-Jan-12 09:49N 29°51' W 092°22'2 5.3
2018-Jan-12 09:30N 29°51' W 092°20'2 4.9
2018-Jan-12 09:00N 29°49' W 092°17'3 5.3
2018-Jan-12 08:30N 29°48' W 092°15'2 4.7
2018-Jan-12 08:00N 29°47' W 092°12'2 4.4
2018-Jan-12 07:30N 29°47' W 092°10'3 5.6
2018-Jan-12 07:00N 29°48' W 092°07'3 5.7
2018-Jan-12 06:28N 29°49' W 092°03'65 5.0
2018-Jan-11 17:38N 29°32' W 090°51'1 6.1
2018-Jan-11 17:30N 29°32' W 090°51'3 5.9
2018-Jan-11 17:00N 29°32' W 090°47'3 5.1
2018-Jan-11 16:30N 29°34' W 090°45'2 4.7
2018-Jan-11 16:00N 29°35' W 090°43'2 3.7
2018-Jan-11 15:30N 29°37' W 090°41'3 5.7
2018-Jan-11 15:00N 29°35' W 090°38'3 5.4
2018-Jan-11 14:30N 29°35' W 090°35'4 5.0
2018-Jan-11 13:47N 29°34' W 090°31'  

Dump ship's entire track history